createdAt,value
2018-02-22T00:00:40.632Z,13.60
2018-02-22T00:01:40.556Z,13.30
2018-02-22T00:02:40.472Z,13.30
2018-02-22T00:03:40.386Z,13.00
2018-02-22T00:04:40.299Z,13.80
2018-02-22T00:05:40.214Z,13.00
2018-02-22T00:06:40.121Z,13.00
2018-02-22T00:07:40.061Z,12.70
2018-02-22T00:08:39.973Z,13.20
2018-02-22T00:09:39.882Z,13.30
2018-02-22T00:10:39.788Z,12.40
2018-02-22T00:11:39.694Z,13.40
2018-02-22T00:12:39.613Z,12.80
2018-02-22T00:13:39.548Z,13.30
2018-02-22T00:14:39.444Z,13.50
2018-02-22T00:15:39.369Z,12.80
2018-02-22T00:16:39.272Z,13.20
2018-02-22T00:17:39.196Z,13.50
2018-02-22T00:18:39.120Z,12.80
2018-02-22T00:19:39.019Z,13.90
2018-02-22T00:20:38.960Z,13.30
2018-02-22T00:21:38.856Z,12.90
2018-02-22T00:22:38.775Z,14.00
2018-02-22T00:23:38.690Z,12.50
2018-02-22T00:24:38.598Z,12.90
2018-02-22T00:25:38.516Z,13.30
2018-02-22T00:26:38.427Z,14.30
2018-02-22T00:27:38.358Z,13.10
2018-02-22T00:28:38.276Z,13.60
2018-02-22T00:29:38.175Z,13.50
2018-02-22T00:30:38.085Z,12.70
2018-02-22T00:31:38.011Z,12.70
2018-02-22T00:32:37.913Z,12.50
2018-02-22T00:33:37.849Z,12.40
2018-02-22T00:34:37.759Z,13.10
2018-02-22T00:35:37.660Z,12.80
2018-02-22T00:36:37.588Z,12.60
2018-02-22T00:37:37.491Z,12.70
2018-02-22T00:38:37.412Z,13.10
2018-02-22T00:39:37.329Z,12.90
2018-02-22T00:40:37.245Z,13.10
2018-02-22T00:41:37.150Z,13.30
2018-02-22T00:42:37.074Z,13.50
2018-02-22T00:43:37.000Z,12.90
2018-02-22T00:44:36.904Z,13.00
2018-02-22T00:45:36.818Z,14.00
2018-02-22T00:46:36.737Z,13.30
2018-02-22T00:47:36.658Z,12.90
2018-02-22T00:48:36.554Z,13.20
2018-02-22T00:49:36.485Z,13.20
2018-02-22T00:50:36.402Z,13.60
2018-02-22T00:51:36.302Z,13.20
2018-02-22T00:52:36.218Z,13.40
2018-02-22T00:53:36.136Z,14.20
2018-02-22T00:54:36.050Z,13.10
2018-02-22T00:55:35.982Z,13.20
2018-02-22T00:56:35.876Z,14.00
2018-02-22T00:57:35.799Z,13.50
2018-02-22T00:58:35.705Z,14.10
2018-02-22T00:59:35.637Z,13.20
2018-02-22T01:00:35.556Z,14.20
2018-02-22T01:01:35.453Z,13.40
2018-02-22T01:02:35.377Z,14.00
2018-02-22T01:03:35.288Z,13.10
2018-02-22T01:04:35.203Z,13.50
2018-02-22T01:05:35.115Z,13.10
2018-02-22T01:06:35.032Z,12.80
2018-02-22T01:07:34.939Z,12.90
2018-02-22T01:08:34.856Z,13.20
2018-02-22T01:09:34.780Z,13.30
2018-02-22T01:10:34.714Z,13.40
2018-02-22T01:11:34.613Z,13.20
2018-02-22T01:12:34.521Z,12.90
2018-02-22T01:13:34.435Z,12.80
2018-02-22T01:14:34.345Z,15.30
2018-02-22T01:15:34.255Z,12.90
2018-02-22T01:16:34.183Z,13.60
2018-02-22T01:17:34.109Z,13.10
2018-02-22T01:18:34.007Z,13.20
2018-02-22T01:19:33.919Z,12.80
2018-02-22T01:20:33.842Z,12.90
2018-02-22T01:21:33.751Z,12.50
2018-02-22T01:22:33.683Z,12.70
2018-02-22T01:23:33.579Z,12.30
2018-02-22T01:24:33.499Z,12.60
2018-02-22T01:25:33.415Z,12.60
2018-02-22T01:26:33.334Z,13.70
2018-02-22T01:27:33.256Z,12.50
2018-02-22T01:28:33.153Z,13.10
2018-02-22T01:29:33.065Z,12.00
2018-02-22T01:30:32.994Z,12.50
2018-02-22T01:31:32.920Z,12.10
2018-02-22T01:32:32.817Z,12.00
2018-02-22T01:33:32.742Z,11.40
2018-02-22T01:34:32.669Z,11.90
2018-02-22T01:35:32.555Z,11.60
2018-02-22T01:36:32.485Z,12.30
2018-02-22T01:37:32.403Z,11.70
2018-02-22T01:38:32.316Z,11.80
2018-02-22T01:39:32.238Z,12.00
2018-02-22T01:40:32.129Z,12.30
2018-02-22T01:41:32.055Z,11.50
2018-02-22T01:42:31.984Z,12.00
2018-02-22T01:43:31.887Z,11.80
2018-02-22T01:44:31.806Z,11.60
2018-02-22T01:45:31.724Z,12.10
2018-02-22T01:46:31.638Z,12.80
2018-02-22T01:47:31.550Z,12.20
2018-02-22T01:48:31.463Z,11.80
2018-02-22T01:49:31.386Z,12.00
2018-02-22T01:50:31.288Z,11.70
2018-02-22T01:51:31.212Z,12.30
2018-02-22T01:52:31.135Z,12.00
2018-02-22T01:53:31.035Z,12.20
2018-02-22T01:54:30.943Z,11.60
2018-02-22T01:55:30.863Z,11.50
2018-02-22T01:56:30.783Z,12.00
2018-02-22T01:57:30.697Z,12.70
2018-02-22T01:58:30.624Z,12.40
2018-02-22T01:59:30.530Z,11.80
2018-02-22T02:00:30.460Z,12.50
2018-02-22T02:01:30.360Z,12.10
2018-02-22T02:02:30.281Z,12.40
2018-02-22T02:03:30.186Z,12.30
2018-02-22T02:04:30.106Z,12.30
2018-02-22T02:05:30.031Z,12.70
2018-02-22T02:06:29.936Z,12.50
2018-02-22T02:07:29.846Z,12.30
2018-02-22T02:08:29.765Z,12.10
2018-02-22T02:09:29.688Z,12.50
2018-02-22T02:10:29.603Z,12.20
2018-02-22T02:11:29.510Z,12.50
2018-02-22T02:12:29.421Z,12.70
2018-02-22T02:13:29.346Z,12.70
2018-02-22T02:14:29.264Z,12.20
2018-02-22T02:15:29.191Z,12.20
2018-02-22T02:16:29.094Z,12.90
2018-02-22T02:17:29.017Z,14.20
2018-02-22T02:18:28.923Z,12.90
2018-02-22T02:19:28.846Z,12.90
2018-02-22T02:20:28.766Z,12.50
2018-02-22T02:21:28.668Z,11.80
2018-02-22T02:22:28.590Z,12.80
2018-02-22T02:23:28.501Z,13.20
2018-02-22T02:24:28.413Z,12.70
2018-02-22T02:25:28.326Z,12.40
2018-02-22T02:26:28.247Z,12.10
2018-02-22T02:27:28.167Z,12.80
2018-02-22T02:28:28.076Z,12.10
2018-02-22T02:29:27.988Z,12.70
2018-02-22T02:30:27.915Z,12.40
2018-02-22T02:31:27.822Z,12.20
2018-02-22T02:32:27.738Z,13.10
2018-02-22T02:33:27.656Z,12.50
2018-02-22T02:34:27.576Z,12.60
2018-02-22T02:35:27.544Z,12.10
2018-02-22T02:36:27.403Z,12.30
2018-02-22T02:37:27.312Z,12.80
2018-02-22T02:38:27.234Z,13.40
2018-02-22T02:39:27.159Z,12.20
2018-02-22T02:40:27.065Z,13.00
2018-02-22T02:41:26.990Z,12.40
2018-02-22T02:42:26.886Z,12.60
2018-02-22T02:43:26.825Z,13.70
2018-02-22T02:44:26.728Z,12.90
2018-02-22T02:45:26.638Z,13.10
2018-02-22T02:46:26.557Z,13.20
2018-02-22T02:47:26.486Z,13.10
2018-02-22T02:48:26.404Z,14.00
2018-02-22T02:49:26.317Z,12.80
2018-02-22T02:50:26.212Z,13.50
2018-02-22T02:51:26.142Z,13.40
2018-02-22T02:52:26.039Z,13.80
2018-02-22T02:53:25.962Z,13.80
2018-02-22T02:54:25.895Z,13.10
2018-02-22T02:55:25.791Z,13.50
2018-02-22T02:56:25.719Z,13.30
2018-02-22T02:57:25.627Z,13.90
2018-02-22T02:58:25.544Z,13.20
2018-02-22T02:59:25.455Z,12.80
2018-02-22T03:00:25.377Z,13.00
2018-02-22T03:01:25.279Z,13.30
2018-02-22T03:02:25.193Z,13.50
2018-02-22T03:03:25.116Z,13.10
2018-02-22T03:04:25.041Z,13.70
2018-02-22T03:05:24.944Z,13.20
2018-02-22T03:06:24.876Z,12.80
2018-02-22T03:07:24.770Z,14.10
2018-02-22T03:08:24.698Z,13.40
2018-02-22T03:09:24.616Z,13.20
2018-02-22T03:10:24.520Z,13.30
2018-02-22T03:11:24.442Z,13.80
2018-02-22T03:12:24.355Z,14.00
2018-02-22T03:13:24.268Z,13.80
2018-02-22T03:14:24.178Z,13.50
2018-02-22T03:15:24.096Z,13.50
2018-02-22T03:16:24.022Z,13.00
2018-02-22T03:17:23.917Z,13.30
2018-02-22T03:18:23.846Z,13.50
2018-02-22T03:19:23.778Z,13.70
2018-02-22T03:20:23.668Z,13.50
2018-02-22T03:21:23.596Z,13.70
2018-02-22T03:22:23.503Z,13.50
2018-02-22T03:23:23.434Z,13.30
2018-02-22T03:24:23.329Z,13.00
2018-02-22T03:25:23.240Z,13.70
2018-02-22T03:26:23.171Z,13.30
2018-02-22T03:27:23.074Z,13.70
2018-02-22T03:28:22.997Z,13.30
2018-02-22T03:29:22.912Z,13.80
2018-02-22T03:30:22.823Z,13.40
2018-02-22T03:31:22.748Z,13.40
2018-02-22T03:32:22.655Z,13.70
2018-02-22T03:33:22.565Z,14.10
2018-02-22T03:34:22.497Z,13.60
2018-02-22T03:35:22.393Z,13.50
2018-02-22T03:36:22.312Z,13.40
2018-02-22T03:37:22.225Z,13.10
2018-02-22T03:38:22.150Z,13.60
2018-02-22T03:39:22.073Z,13.10
2018-02-22T03:40:21.973Z,14.70
2018-02-22T03:41:21.903Z,13.50
2018-02-22T03:42:21.796Z,13.30
2018-02-22T03:43:21.722Z,14.10
2018-02-22T03:44:21.631Z,14.20
2018-02-22T03:45:21.586Z,13.80
2018-02-22T03:46:21.460Z,12.60
2018-02-22T03:47:21.376Z,14.00
2018-02-22T03:48:21.298Z,13.70
2018-02-22T03:49:21.214Z,13.90
2018-02-22T03:50:21.131Z,14.10
2018-02-22T03:51:21.037Z,13.50
2018-02-22T03:52:20.956Z,13.70
2018-02-22T03:53:20.870Z,14.30
2018-02-22T03:54:20.798Z,13.40
2018-02-22T03:55:20.708Z,14.00
2018-02-22T03:56:20.623Z,13.20
2018-02-22T03:57:20.540Z,13.90
2018-02-22T03:58:20.448Z,13.70
2018-02-22T03:59:20.368Z,15.10
2018-02-22T04:00:20.272Z,14.30
2018-02-22T04:01:20.201Z,13.70
2018-02-22T04:02:20.107Z,14.00
2018-02-22T04:03:20.023Z,14.10
2018-02-22T04:04:19.950Z,14.50
2018-02-22T04:05:19.849Z,14.80
2018-02-22T04:06:19.763Z,13.80
2018-02-22T04:07:19.676Z,14.80
2018-02-22T04:08:19.604Z,14.30
2018-02-22T04:09:19.515Z,14.30
2018-02-22T04:10:19.433Z,14.80
2018-02-22T04:11:19.336Z,14.70
2018-02-22T04:12:19.257Z,14.10
2018-02-22T04:13:19.179Z,14.20
2018-02-22T04:14:19.104Z,14.60
2018-02-22T04:15:19.000Z,14.10
2018-02-22T04:16:18.929Z,14.50
2018-02-22T04:17:18.829Z,14.50
2018-02-22T04:18:18.794Z,14.60
2018-02-22T04:19:18.662Z,15.20
2018-02-22T04:20:18.582Z,14.40
2018-02-22T04:21:18.503Z,14.00
2018-02-22T04:22:18.399Z,14.00
2018-02-22T04:23:18.316Z,14.40
2018-02-22T04:24:18.235Z,15.00
2018-02-22T04:25:18.160Z,15.10
2018-02-22T04:26:18.079Z,14.60
2018-02-22T04:27:17.984Z,14.60
2018-02-22T04:28:17.903Z,14.70
2018-02-22T04:29:17.815Z,15.00
2018-02-22T04:30:17.725Z,14.80
2018-02-22T04:31:17.653Z,14.90
2018-02-22T04:32:17.555Z,14.20
2018-02-22T04:33:17.470Z,14.40
2018-02-22T04:34:17.380Z,14.10
2018-02-22T04:35:17.316Z,14.90
2018-02-22T04:36:17.230Z,15.10
2018-02-22T04:37:17.131Z,15.00
2018-02-22T04:38:17.036Z,15.10
2018-02-22T04:39:16.955Z,15.30
2018-02-22T04:40:16.871Z,14.70
2018-02-22T04:41:16.785Z,15.40
2018-02-22T04:42:16.706Z,14.70
2018-02-22T04:43:16.624Z,15.00
2018-02-22T04:44:16.529Z,15.00
2018-02-22T04:45:16.441Z,15.20
2018-02-22T04:46:16.362Z,15.60
2018-02-22T04:47:16.280Z,15.00
2018-02-22T04:48:16.190Z,15.40
2018-02-22T04:49:16.101Z,15.40
2018-02-22T04:50:16.024Z,14.80
2018-02-22T04:51:15.928Z,15.50
2018-02-22T04:52:15.843Z,14.50
2018-02-22T04:53:15.756Z,14.90
2018-02-22T04:54:15.733Z,15.50
2018-02-22T04:55:15.595Z,15.60
2018-02-22T04:56:15.503Z,14.80
2018-02-22T04:57:15.416Z,15.20
2018-02-22T04:58:15.333Z,17.20
2018-02-22T04:59:15.260Z,15.40
2018-02-22T05:00:15.159Z,15.10
2018-02-22T05:01:15.090Z,16.10
2018-02-22T05:02:14.993Z,15.80
2018-02-22T05:03:14.906Z,15.90
2018-02-22T05:04:14.830Z,15.30
2018-02-22T05:05:14.728Z,16.00
2018-02-22T05:06:14.651Z,16.20
2018-02-22T05:07:14.557Z,16.10
2018-02-22T05:08:14.487Z,15.50
2018-02-22T05:09:14.398Z,16.60
2018-02-22T05:10:14.304Z,16.60
2018-02-22T05:11:14.220Z,16.00
2018-02-22T05:12:14.129Z,15.60
2018-02-22T05:13:14.052Z,17.90
2018-02-22T05:14:13.981Z,16.10
2018-02-22T05:15:13.891Z,16.60
2018-02-22T05:16:13.806Z,16.20
2018-02-22T05:17:13.721Z,16.30
2018-02-22T05:18:13.628Z,16.60
2018-02-22T05:19:13.535Z,16.70
2018-02-22T05:20:13.455Z,16.30
2018-02-22T05:21:13.360Z,16.80
2018-02-22T05:22:13.285Z,17.00
2018-02-22T05:23:13.212Z,16.30
2018-02-22T05:24:13.109Z,16.60
2018-02-22T05:25:13.021Z,17.10
2018-02-22T05:26:12.929Z,16.20
2018-02-22T05:27:12.860Z,16.90
2018-02-22T05:28:12.757Z,17.50
2018-02-22T05:29:12.682Z,16.80
2018-02-22T05:30:12.603Z,16.40
2018-02-22T05:31:12.512Z,16.20
2018-02-22T05:32:12.424Z,16.80
2018-02-22T05:33:12.335Z,17.10
2018-02-22T05:34:12.283Z,16.80
2018-02-22T05:35:12.159Z,16.70
2018-02-22T05:36:12.068Z,17.40
2018-02-22T05:37:12.000Z,17.80
2018-02-22T05:38:11.910Z,16.70
2018-02-22T05:39:11.821Z,17.00
2018-02-22T05:40:11.738Z,16.80
2018-02-22T05:41:11.658Z,16.90
2018-02-22T05:42:11.558Z,16.90
2018-02-22T05:43:11.475Z,16.60
2018-02-22T05:44:11.382Z,17.30
2018-02-22T05:45:11.322Z,17.00
2018-02-22T05:46:11.235Z,16.30
2018-02-22T05:47:11.140Z,16.70
2018-02-22T05:48:11.045Z,16.90
2018-02-22T05:49:10.956Z,17.90
2018-02-22T05:50:10.875Z,17.60
2018-02-22T05:51:10.784Z,17.00
2018-02-22T05:52:10.713Z,18.00
2018-02-22T05:53:10.615Z,16.60
2018-02-22T05:54:10.539Z,16.40
2018-02-22T05:55:10.462Z,17.20
2018-02-22T05:56:10.371Z,17.30
2018-02-22T05:57:10.270Z,16.90
2018-02-22T05:58:10.187Z,17.00
2018-02-22T05:59:10.100Z,17.00
2018-02-22T06:00:10.015Z,16.50
2018-02-22T06:01:09.928Z,16.80
2018-02-22T06:02:09.843Z,16.30
2018-02-22T06:03:09.764Z,17.90
2018-02-22T06:04:09.674Z,17.30
2018-02-22T06:05:09.586Z,16.60
2018-02-22T06:06:09.508Z,16.90
2018-02-22T06:07:09.420Z,17.40
2018-02-22T06:08:09.326Z,17.30
2018-02-22T06:09:09.249Z,16.60
2018-02-22T06:10:09.172Z,17.60
2018-02-22T06:11:09.079Z,16.60
2018-02-22T06:12:08.986Z,17.80
2018-02-22T06:13:08.900Z,16.80
2018-02-22T06:14:08.819Z,17.50
2018-02-22T06:15:08.734Z,17.20
2018-02-22T06:16:08.640Z,18.20
2018-02-22T06:17:08.564Z,17.60
2018-02-22T06:18:08.476Z,17.40
2018-02-22T06:19:08.388Z,17.70
2018-02-22T06:20:08.299Z,18.00
2018-02-22T06:21:08.209Z,16.90
2018-02-22T06:22:08.129Z,16.70
2018-02-22T06:23:08.040Z,16.90
2018-02-22T06:24:07.967Z,17.10
2018-02-22T06:25:07.866Z,17.40
2018-02-22T06:26:07.786Z,17.30
2018-02-22T06:27:07.705Z,17.30
2018-02-22T06:28:07.615Z,17.10
2018-02-22T06:29:07.524Z,17.50
2018-02-22T06:30:07.451Z,17.40
2018-02-22T06:31:07.365Z,17.30
2018-02-22T06:32:07.268Z,17.40
2018-02-22T06:33:07.196Z,17.60
2018-02-22T06:34:07.089Z,16.60
2018-02-22T06:35:07.024Z,17.10
2018-02-22T06:36:06.919Z,18.50
2018-02-22T06:37:06.844Z,17.20
2018-02-22T06:38:06.759Z,17.90
2018-02-22T06:39:06.663Z,17.30
2018-02-22T06:40:06.592Z,18.10
2018-02-22T06:41:06.492Z,17.70
2018-02-22T06:42:06.420Z,17.50
2018-02-22T06:43:06.329Z,17.90
2018-02-22T06:44:06.246Z,17.70
2018-02-22T06:45:06.154Z,18.20
2018-02-22T06:46:06.072Z,18.10
2018-02-22T06:47:05.990Z,18.50
2018-02-22T06:48:05.893Z,17.40
2018-02-22T06:49:05.806Z,17.90
2018-02-22T06:50:05.722Z,17.90
2018-02-22T06:51:05.649Z,18.30
2018-02-22T06:52:05.565Z,18.40
2018-02-22T06:53:05.466Z,17.80
2018-02-22T06:54:05.389Z,15.90
2018-02-22T06:55:05.299Z,17.20
2018-02-22T06:56:05.208Z,17.80
2018-02-22T06:57:05.119Z,17.20
2018-02-22T06:58:05.036Z,16.70
2018-02-22T06:59:04.960Z,17.90
2018-02-22T07:00:04.867Z,18.20
2018-02-22T07:01:04.792Z,17.40
2018-02-22T07:02:04.696Z,17.70
2018-02-22T07:03:04.604Z,18.50
2018-02-22T07:04:04.529Z,17.80
2018-02-22T07:05:04.444Z,18.40
2018-02-22T07:06:04.361Z,18.00
2018-02-22T07:07:04.269Z,17.90
2018-02-22T07:08:04.182Z,17.90
2018-02-22T07:09:04.092Z,18.90
2018-02-22T07:10:04.015Z,18.00
2018-02-22T07:11:03.919Z,18.40
2018-02-22T07:12:03.848Z,18.10
2018-02-22T07:13:03.762Z,17.40
2018-02-22T07:14:03.668Z,17.40
2018-02-22T07:15:03.585Z,18.20
2018-02-22T07:16:03.492Z,18.60
2018-02-22T07:17:03.411Z,18.20
2018-02-22T07:18:03.341Z,17.90
2018-02-22T07:19:03.249Z,18.60
2018-02-22T07:20:03.169Z,18.20
2018-02-22T07:21:03.078Z,18.70
2018-02-22T07:22:02.990Z,19.10
2018-02-22T07:23:02.913Z,18.80
2018-02-22T07:24:02.824Z,18.10
2018-02-22T07:25:02.762Z,18.30
2018-02-22T07:26:02.653Z,18.80
2018-02-22T07:27:02.555Z,18.90
2018-02-22T07:28:02.482Z,19.20
2018-02-22T07:29:02.397Z,18.70
2018-02-22T07:30:02.316Z,18.50
2018-02-22T07:31:02.232Z,18.80
2018-02-22T07:32:02.147Z,19.50
2018-02-22T07:33:02.047Z,18.80
2018-02-22T07:34:01.976Z,18.90
2018-02-22T07:35:01.897Z,17.90
2018-02-22T07:36:01.798Z,18.90
2018-02-22T07:37:01.718Z,19.10
2018-02-22T07:38:01.619Z,18.60
2018-02-22T07:39:01.568Z,19.10
2018-02-22T07:40:01.458Z,18.90
2018-02-22T07:41:01.396Z,19.00
2018-02-22T07:42:01.298Z,18.10
2018-02-22T07:43:01.209Z,19.10
2018-02-22T07:44:01.272Z,18.80
2018-02-22T07:45:01.095Z,18.90
2018-02-22T07:46:01.043Z,18.20
2018-02-22T07:47:00.875Z,18.90
2018-02-22T07:48:00.786Z,19.20
2018-02-22T07:49:00.695Z,19.00
2018-02-22T07:50:00.613Z,18.90
2018-02-22T07:51:00.553Z,19.20
2018-02-22T07:52:00.451Z,18.80
2018-02-22T07:53:00.387Z,18.80
2018-02-22T07:54:00.278Z,18.70
2018-02-22T07:55:00.199Z,19.20
2018-02-22T07:56:00.121Z,19.00
2018-02-22T07:57:00.036Z,18.20
2018-02-22T07:57:59.953Z,19.20
2018-02-22T07:58:59.864Z,18.80
2018-02-22T07:59:59.832Z,19.80
2018-02-22T08:00:59.703Z,19.50
2018-02-22T08:01:59.634Z,19.90
2018-02-22T08:02:59.533Z,19.50
2018-02-22T08:03:59.454Z,19.20
2018-02-22T08:04:59.356Z,18.90
2018-02-22T08:05:59.275Z,19.30
2018-02-22T08:06:59.202Z,19.70
2018-02-22T08:07:59.106Z,18.30
2018-02-22T08:08:59.024Z,19.30
2018-02-22T08:09:58.949Z,18.40
2018-02-22T08:10:58.848Z,19.50
2018-02-22T08:11:58.777Z,19.00
2018-02-22T08:12:58.691Z,19.40
2018-02-22T08:13:58.607Z,19.40
2018-02-22T08:14:58.788Z,19.70
2018-02-22T08:15:58.537Z,18.80
2018-02-22T08:16:58.352Z,18.80
2018-02-22T08:17:58.268Z,18.00
2018-02-22T08:18:58.180Z,18.40
2018-02-22T08:19:58.115Z,18.70
2018-02-22T08:20:58.028Z,19.00
2018-02-22T08:21:57.924Z,18.40
2018-02-22T08:22:57.847Z,19.20
2018-02-22T08:23:57.761Z,18.90
2018-02-22T08:24:57.684Z,18.70
2018-02-22T08:25:57.599Z,18.90
2018-02-22T08:26:57.511Z,18.90
2018-02-22T08:27:57.434Z,18.30
2018-02-22T08:28:57.364Z,17.90
2018-02-22T08:29:57.266Z,18.60
2018-02-22T08:30:57.189Z,17.20
2018-02-22T08:31:57.111Z,17.70
2018-02-22T08:32:57.004Z,17.10
2018-02-22T08:33:56.932Z,18.50
2018-02-22T08:34:56.854Z,18.40
2018-02-22T08:35:56.756Z,17.90
2018-02-22T08:36:56.685Z,19.00
2018-02-22T08:37:56.599Z,18.70
2018-02-22T08:38:56.561Z,19.00
2018-02-22T08:39:56.428Z,17.90
2018-02-22T08:40:56.361Z,17.50
2018-02-22T08:41:56.260Z,17.30
2018-02-22T08:42:56.177Z,16.40
2018-02-22T08:43:56.113Z,16.50
2018-02-22T08:44:56.007Z,16.60
2018-02-22T08:45:55.927Z,16.30
2018-02-22T08:46:55.847Z,15.70
2018-02-22T08:47:55.787Z,15.90
2018-02-22T08:48:55.683Z,16.90
2018-02-22T08:49:55.610Z,16.50
2018-02-22T08:50:55.530Z,15.70
2018-02-22T08:51:55.444Z,15.80
2018-02-22T08:52:55.365Z,16.30
2018-02-22T08:53:55.273Z,16.00
2018-02-22T08:54:55.216Z,15.90
2018-02-22T08:55:55.118Z,15.90
2018-02-22T08:56:55.549Z,15.10
2018-02-22T08:57:54.977Z,14.20
2018-02-22T08:58:54.905Z,15.10
2018-02-22T08:59:54.831Z,15.60
2018-02-22T09:00:54.763Z,16.10
2018-02-22T09:01:54.653Z,16.50
2018-02-22T09:02:54.551Z,15.60
2018-02-22T09:03:54.611Z,15.50
2018-02-22T09:04:54.375Z,16.00
2018-02-22T09:05:54.310Z,15.90
2018-02-22T09:06:54.207Z,16.10
2018-02-22T09:07:54.141Z,17.20
2018-02-22T09:08:54.058Z,16.90
2018-02-22T09:09:53.986Z,16.90
2018-02-22T09:10:53.923Z,17.00
2018-02-22T09:11:53.812Z,17.60
2018-02-22T09:12:53.727Z,17.70
2018-02-22T09:13:53.679Z,17.50
2018-02-22T09:14:53.564Z,18.10
2018-02-22T09:15:53.487Z,17.60
2018-02-22T09:16:53.420Z,18.10
2018-02-22T09:17:53.323Z,17.20
2018-02-22T09:18:53.247Z,19.70
2018-02-22T09:19:53.154Z,16.70
2018-02-22T09:20:53.078Z,16.70
2018-02-22T09:21:53.010Z,17.40
2018-02-22T09:22:52.908Z,16.00
2018-02-22T09:23:52.843Z,16.60
2018-02-22T09:24:52.767Z,16.50
2018-02-22T09:25:52.684Z,16.30
2018-02-22T09:26:52.588Z,16.20
2018-02-22T09:27:52.507Z,16.00
2018-02-22T09:28:52.437Z,15.60
2018-02-22T09:29:52.381Z,14.20
2018-02-22T09:30:52.278Z,16.20
2018-02-22T09:31:52.187Z,14.50
2018-02-22T09:32:52.120Z,13.10
2018-02-22T09:33:52.043Z,12.90
2018-02-22T09:34:51.964Z,13.70
2018-02-22T09:35:51.860Z,13.40
2018-02-22T09:36:51.793Z,13.10
2018-02-22T09:37:51.716Z,13.20
2018-02-22T09:38:51.622Z,13.40
2018-02-22T09:39:51.551Z,13.00
2018-02-22T09:40:51.462Z,13.70
2018-02-22T09:41:51.383Z,13.70
2018-02-22T09:42:51.322Z,14.10
2018-02-22T09:43:51.235Z,13.70
2018-02-22T09:44:51.137Z,12.50
2018-02-22T09:45:51.069Z,12.60
2018-02-22T09:46:50.981Z,12.60
2018-02-22T09:47:50.920Z,11.80
2018-02-22T09:48:50.816Z,10.20
2018-02-22T09:49:50.735Z,10.60
2018-02-22T09:50:50.658Z,10.60
2018-02-22T09:51:50.577Z,9.80
2018-02-22T09:52:50.498Z,10.20
2018-02-22T09:53:50.413Z,10.80
2018-02-22T09:54:50.325Z,10.20
2018-02-22T09:55:50.255Z,10.80
2018-02-22T09:56:50.170Z,10.50
2018-02-22T09:57:50.088Z,9.70
2018-02-22T09:58:50.004Z,9.90
2018-02-22T09:59:49.925Z,10.40
2018-02-22T10:00:49.835Z,10.00
2018-02-22T10:01:49.773Z,9.60
2018-02-22T10:02:49.690Z,10.70
2018-02-22T10:03:49.587Z,9.80
2018-02-22T10:04:49.514Z,9.50
2018-02-22T10:05:49.428Z,9.80
2018-02-22T10:06:49.356Z,10.00
2018-02-22T10:07:49.273Z,8.50
2018-02-22T10:08:49.193Z,8.80
2018-02-22T10:09:49.108Z,7.30
2018-02-22T10:10:49.029Z,8.00
2018-02-22T10:11:48.937Z,8.80
2018-02-22T10:12:48.863Z,8.70
2018-02-22T10:13:48.786Z,9.20
2018-02-22T10:14:48.689Z,9.00
2018-02-22T10:15:48.618Z,9.90
2018-02-22T10:16:48.531Z,10.50
2018-02-22T10:17:48.460Z,10.70
2018-02-22T10:18:48.367Z,6.90
2018-02-22T10:19:48.288Z,7.00
2018-02-22T10:20:48.219Z,7.20
2018-02-22T10:21:48.127Z,7.20
2018-02-22T10:22:48.050Z,7.00
2018-02-22T10:23:47.967Z,6.80
2018-02-22T10:24:47.881Z,7.50
2018-02-22T10:25:47.788Z,7.40
2018-02-22T10:26:47.712Z,7.90
2018-02-22T10:27:47.628Z,8.60
2018-02-22T10:28:47.539Z,8.10
2018-02-22T10:29:47.470Z,8.20
2018-02-22T10:30:47.376Z,7.50
2018-02-22T10:31:47.294Z,7.40
2018-02-22T10:32:47.218Z,7.30
2018-02-22T10:33:47.139Z,8.00
2018-02-22T10:34:47.064Z,8.20
2018-02-22T10:35:46.986Z,8.60
2018-02-22T10:36:46.896Z,8.10
2018-02-22T10:37:46.828Z,8.40
2018-02-22T10:38:46.731Z,8.40
2018-02-22T10:39:46.646Z,8.70
2018-02-22T10:40:46.572Z,8.30
2018-02-22T10:41:46.484Z,8.40
2018-02-22T10:42:46.421Z,8.60
2018-02-22T10:43:46.323Z,8.20
2018-02-22T10:44:46.263Z,8.60
2018-02-22T10:45:46.168Z,8.80
2018-02-22T10:46:46.081Z,8.80
2018-02-22T10:47:45.997Z,8.10
2018-02-22T10:48:45.923Z,8.00
2018-02-22T10:49:45.835Z,7.20
2018-02-22T10:50:45.772Z,7.80
2018-02-22T10:51:45.667Z,7.80
2018-02-22T10:52:45.593Z,7.90
2018-02-22T10:53:45.522Z,8.20
2018-02-22T10:54:45.430Z,7.20
2018-02-22T10:55:45.346Z,7.30
2018-02-22T10:56:45.271Z,7.40
2018-02-22T10:57:45.191Z,7.80
2018-02-22T10:58:45.132Z,7.50
2018-02-22T10:59:45.018Z,7.80
2018-02-22T11:00:44.950Z,7.50
2018-02-22T11:01:44.865Z,7.70
2018-02-22T11:02:44.780Z,8.20
2018-02-22T11:03:44.705Z,8.50
2018-02-22T11:04:44.627Z,8.60
2018-02-22T11:05:44.531Z,8.00
2018-02-22T11:06:44.479Z,7.90
2018-02-22T11:07:44.372Z,8.10
2018-02-22T11:08:44.305Z,7.60
2018-02-22T11:09:44.228Z,8.30
2018-02-22T11:10:44.130Z,7.70
2018-02-22T11:11:44.073Z,7.10
2018-02-22T11:12:43.978Z,7.60
2018-02-22T11:13:43.896Z,7.60
2018-02-22T11:14:43.824Z,7.10
2018-02-22T11:15:43.733Z,6.80
2018-02-22T11:16:43.649Z,6.50
2018-02-22T11:17:43.574Z,6.10
2018-02-22T11:18:43.504Z,5.90
2018-02-22T11:19:43.429Z,6.40
2018-02-22T11:20:43.337Z,6.00
2018-02-22T11:21:43.244Z,6.50
2018-02-22T11:22:43.173Z,6.60
2018-02-22T11:23:43.112Z,6.20
2018-02-22T11:24:43.012Z,6.50
2018-02-22T11:25:42.946Z,6.60
2018-02-22T11:26:42.848Z,6.80
2018-02-22T11:27:42.776Z,7.10
2018-02-22T11:28:42.708Z,7.00
2018-02-22T11:29:42.615Z,7.10
2018-02-22T11:30:42.539Z,7.30
2018-02-22T11:31:42.454Z,7.20
2018-02-22T11:32:42.375Z,6.90
2018-02-22T11:33:42.301Z,6.70
2018-02-22T11:34:42.222Z,6.90
2018-02-22T11:35:42.145Z,6.80
2018-02-22T11:36:42.072Z,6.20
2018-02-22T11:37:42.000Z,6.50
2018-02-22T11:38:41.909Z,6.20
2018-02-22T11:39:41.811Z,6.70
2018-02-22T11:40:41.748Z,6.00
2018-02-22T11:41:41.669Z,5.30
2018-02-22T11:42:41.586Z,4.70
2018-02-22T11:43:41.507Z,5.50
2018-02-22T11:44:41.436Z,6.30
2018-02-22T11:45:41.353Z,6.10
2018-02-22T11:46:41.281Z,6.20
2018-02-22T11:47:41.198Z,6.10
2018-02-22T11:48:41.117Z,5.90
2018-02-22T11:49:41.031Z,6.10
2018-02-22T11:50:40.951Z,6.10
2018-02-22T11:51:40.882Z,6.00
2018-02-22T11:52:40.802Z,5.70
2018-02-22T11:53:40.737Z,5.70
2018-02-22T11:54:40.649Z,5.80
2018-02-22T11:55:40.557Z,6.00
2018-02-22T11:56:40.474Z,6.20
2018-02-22T11:57:40.402Z,5.90
2018-02-22T11:58:40.330Z,6.80
2018-02-22T11:59:40.261Z,6.40
2018-02-22T12:00:40.178Z,6.10
2018-02-22T12:01:40.236Z,6.80
2018-02-22T12:02:40.025Z,6.40
2018-02-22T12:03:39.926Z,6.60
2018-02-22T12:04:39.850Z,5.90
2018-02-22T12:05:39.780Z,6.30
2018-02-22T12:06:39.696Z,5.90
2018-02-22T12:07:39.619Z,5.30
2018-02-22T12:08:39.530Z,5.30
2018-02-22T12:09:39.458Z,5.30
2018-02-22T12:10:39.380Z,5.80
2018-02-22T12:11:39.305Z,6.60
2018-02-22T12:12:39.222Z,7.10
2018-02-22T12:13:39.133Z,6.60
2018-02-22T12:14:39.054Z,7.00
2018-02-22T12:15:38.982Z,7.30
2018-02-22T12:16:38.909Z,7.20
2018-02-22T12:17:38.818Z,6.40
2018-02-22T12:18:38.729Z,6.30
2018-02-22T12:19:38.656Z,5.90
2018-02-22T12:20:38.590Z,5.70
2018-02-22T12:21:38.507Z,5.90
2018-02-22T12:22:38.431Z,6.40
2018-02-22T12:23:38.334Z,6.20
2018-02-22T12:24:38.251Z,6.60
2018-02-22T12:25:38.181Z,6.70
2018-02-22T12:26:38.109Z,6.60
2018-02-22T12:27:38.018Z,6.70
2018-02-22T12:28:37.949Z,6.60
2018-02-22T12:29:37.862Z,6.40
2018-02-22T12:30:37.787Z,6.20
2018-02-22T12:31:37.704Z,6.50
2018-02-22T12:32:37.622Z,6.90
2018-02-22T12:33:37.534Z,7.20
2018-02-22T12:34:37.462Z,6.50
2018-02-22T12:35:37.372Z,7.60
2018-02-22T12:36:37.315Z,6.10
2018-02-22T12:37:37.204Z,6.60
2018-02-22T12:38:37.132Z,7.00
2018-02-22T12:39:37.055Z,6.70
2018-02-22T12:40:36.967Z,6.50
2018-02-22T12:41:36.887Z,7.10
2018-02-22T12:42:36.805Z,6.90
2018-02-22T12:43:36.734Z,7.40
2018-02-22T12:44:36.666Z,7.50
2018-02-22T12:45:36.569Z,7.10
2018-02-22T12:46:36.489Z,7.10
2018-02-22T12:47:36.412Z,7.40
2018-02-22T12:48:36.317Z,7.50
2018-02-22T12:49:36.266Z,7.20
2018-02-22T12:50:36.162Z,7.20
2018-02-22T12:51:36.085Z,6.70
2018-02-22T12:52:36.006Z,6.70
2018-02-22T12:53:35.932Z,6.60
2018-02-22T12:54:35.841Z,7.00
2018-02-22T12:55:35.754Z,7.30
2018-02-22T12:56:35.682Z,7.20
2018-02-22T12:57:35.599Z,7.80